Thunder radar more information blitzortung!


Radar de pluja more information rain snow radar


Visita la nostra xarxa de llocs de meteo:

Template documentation
and downloads

And another site



No particular awareness of the weather is required.    There are no Weather-warnings

Pagina Historial Weather Underground text

Diari Resum Juny 13, 2017 Unitats:  Mètric    Imperial   Tant
« Previous Dia
SegĂźent Dia »
Diari Setmana Mensual Anual Personalitzada
  Maxima: Minima: Media:
Temperatura: 36.0 °C 19.3 °C 29.7 °C
Punt de rosada: 15.1 °C 3.9 °C 10.5 °C
Humitat: 54 % 17 % 32 %
Wind Speed: 22.2 km/h 0.0 km/h 7.3 km/h
RĂ fegues de vent: 22.2 km/h - -
Vent:- - SSW
Pression baro: 1013.8 hPa 1009.0 hPa -
Precipitacions: 0.0 mm    
Historical Graphs
 
 
Dades de taula per Juny 13, 2017
Temps Temperatura Punt de rosada Pression baro Vent Wind Speed RĂ fegues de vent Humitat Rainfall Rate (Hourly)
00:00 20.0 °C 9.6 °C 1012.8 hPa Calm   3.2 km/h 51 % 0.0 mm
00:04 24.3 °C 9.8 °C 1012.8 hPa SW 4.2 km/h 4.2 km/h 40 % 0.0 mm
00:10 19.7 °C 9.3 °C 1012.8 hPa SW 1.6 km/h 1.6 km/h 51 % 0.0 mm
00:20 19.6 °C 9.4 °C 1012.8 hPa SW 1.6 km/h 1.6 km/h 52 % 0.0 mm
00:30 19.5 °C 9.4 °C 1012.8 hPa SW 1.6 km/h 3.2 km/h 52 % 0.0 mm
00:40 19.4 °C 9.3 °C 1012.8 hPa Calm   1.6 km/h 52 % 0.0 mm
00:50 19.4 °C 9.6 °C 1012.8 hPa Calm     53 % 0.0 mm
01:00 19.4 °C 9.6 °C 1012.8 hPa Calm     53 % 0.0 mm
01:10 19.5 °C 9.9 °C 1012.8 hPa Calm     54 % 0.0 mm
01:20 19.4 °C 9.8 °C 1012.8 hPa Calm     54 % 0.0 mm
01:30 19.3 °C 9.8 °C 1012.8 hPa Calm   1.6 km/h 54 % 0.0 mm
01:40 19.3 °C 9.8 °C 1012.8 hPa Calm   1.6 km/h 54 % 0.0 mm
01:50 19.6 °C 10.1 °C 1013.8 hPa Calm   3.2 km/h 54 % 0.0 mm
02:00 19.8 °C 10.2 °C 1013.8 hPa SW 1.6 km/h 3.2 km/h 54 % 0.0 mm
02:10 20.0 °C 10.1 °C 1013.8 hPa Calm   1.6 km/h 53 % 0.0 mm
02:20 20.3 °C 10.1 °C 1013.8 hPa SW 1.6 km/h 3.2 km/h 52 % 0.0 mm
02:30 20.6 °C 10.4 °C 1013.8 hPa SW 1.6 km/h 3.2 km/h 52 % 0.0 mm
02:40 21.5 °C 10.9 °C 1013.8 hPa Calm   1.6 km/h 51 % 0.0 mm
02:50 22.1 °C 11.5 °C 1013.8 hPa Calm   1.6 km/h 51 % 0.0 mm
03:00 22.6 °C 11.7 °C 1013.8 hPa Calm     50 % 0.0 mm
03:10 23.3 °C 12.0 °C 1013.8 hPa SSE 1.6 km/h 1.6 km/h 49 % 0.0 mm
03:20 24.0 °C 12.6 °C 1013.8 hPa Calm   1.6 km/h 49 % 0.0 mm
03:30 24.2 °C 12.5 °C 1013.8 hPa East 1.6 km/h 3.2 km/h 48 % 0.0 mm
03:40 24.2 °C 12.5 °C 1013.8 hPa ESE 1.6 km/h 3.2 km/h 48 % 0.0 mm
03:50 24.8 °C 12.7 °C 1013.8 hPa SW 1.6 km/h 3.2 km/h 47 % 0.0 mm
03:55 25.0 °C 12.6 °C 1013.8 hPa Calm     46 % 0.0 mm
04:05 25.6 °C 13.1 °C 1013.8 hPa Calm   4.8 km/h 46 % 0.0 mm
04:15 26.1 °C 13.2 °C 1013.8 hPa Calm   3.2 km/h 45 % 0.0 mm
04:25 26.5 °C 13.3 °C 1013.8 hPa ENE 1.6 km/h 4.8 km/h 44 % 0.0 mm
04:35 26.7 °C 13.4 °C 1013.8 hPa ESE 3.2 km/h 3.2 km/h 44 % 0.0 mm
04:45 27.2 °C 13.6 °C 1012.8 hPa SSE 1.6 km/h 1.6 km/h 43 % 0.0 mm
04:55 27.6 °C 13.9 °C 1013.8 hPa SSE 3.2 km/h 3.2 km/h 43 % 0.0 mm
05:05 28.4 °C 14.2 °C 1013.8 hPa SSW 1.6 km/h 6.4 km/h 42 % 0.0 mm
05:15 28.7 °C 14.2 °C 1013.8 hPa SW 4.8 km/h 4.8 km/h 41 % 0.0 mm
05:25 29.4 °C 14.4 °C 1013.8 hPa SW 1.6 km/h 4.8 km/h 40 % 0.0 mm
05:35 30.0 °C 14.9 °C 1013.8 hPa SW 1.6 km/h 4.8 km/h 40 % 0.0 mm
10:38 30.6 °C 15.1 °C 1013.8 hPa SW 1.9 km/h 2.6 km/h 39 % 0.0 mm
10:43 30.3 °C 14.8 °C 1013.8 hPa SW 11.1 km/h 11.1 km/h 39 % 0.0 mm
10:48 30.4 °C 14.5 °C 1013.8 hPa SSE 7.4 km/h 7.4 km/h 38 % 0.0 mm
10:53 30.7 °C 14.8 °C 1013.8 hPa South 7.9 km/h 7.9 km/h 38 % 0.0 mm
10:58 30.5 °C 14.2 °C 1013.8 hPa WSW 6.1 km/h 6.1 km/h 37 % 0.0 mm
11:03 31.3 °C 14.4 °C 1013.8 hPa SSE 7.4 km/h 7.4 km/h 36 % 0.0 mm
11:08 31.6 °C 14.7 °C 1013.8 hPa SSW 3.7 km/h 3.7 km/h 36 % 0.0 mm
11:13 31.8 °C 14.9 °C 1013.8 hPa West 5.8 km/h 5.8 km/h 36 % 0.0 mm
11:18 31.4 °C 14.1 °C 1013.8 hPa South 7.4 km/h 7.4 km/h 35 % 0.0 mm
11:23 31.2 °C 13.9 °C 1013.8 hPa SSE 11.1 km/h 11.1 km/h 35 % 0.0 mm
11:28 31.7 °C 14.3 °C 1013.8 hPa SSW 5.6 km/h 5.6 km/h 35 % 0.0 mm
11:38 32.0 °C 13.7 °C 1013.8 hPa WSW 11.1 km/h 11.1 km/h 33 % 0.0 mm
11:43 32.0 °C 13.7 °C 1013.8 hPa ENE 5.6 km/h 5.6 km/h 33 % 0.0 mm
11:48 31.7 °C 13.4 °C 1013.8 hPa ESE 3.7 km/h 5.0 km/h 33 % 0.0 mm
11:53 32.4 °C 14.1 °C 1013.8 hPa South 1.9 km/h 2.3 km/h 33 % 0.0 mm
11:54 32.4 °C 14.1 °C 1013.8 hPa South 1.9 km/h 2.3 km/h 33 % 0.0 mm
11:59 32.3 °C 14.0 °C 1013.8 hPa South 1.9 km/h 2.3 km/h 33 % 0.0 mm
12:04 31.9 °C 13.6 °C 1012.8 hPa ESE 9.7 km/h 9.7 km/h 33 % 0.0 mm
12:09 32.7 °C 13.8 °C 1012.8 hPa SSE 5.6 km/h 5.6 km/h 32 % 0.0 mm
12:14 33.0 °C 14.1 °C 1012.8 hPa SW 9.3 km/h 9.3 km/h 32 % 0.0 mm
12:19 32.9 °C 13.6 °C 1012.8 hPa SE 7.9 km/h 7.9 km/h 31 % 0.0 mm
12:24 32.6 °C 13.3 °C 1012.8 hPa ESE 2.6 km/h 6.4 km/h 31 % 0.0 mm
12:29 32.2 °C 12.9 °C 1012.8 hPa SW 9.3 km/h 9.3 km/h 31 % 0.0 mm
12:34 32.9 °C 13.6 °C 1012.8 hPa WSW 9.7 km/h 9.7 km/h 31 % 0.0 mm
12:39 33.2 °C 13.3 °C 1012.8 hPa SE 4.2 km/h 4.2 km/h 30 % 0.0 mm
12:44 33.3 °C 13.4 °C 1012.8 hPa South 3.9 km/h 5.3 km/h 30 % 0.0 mm
12:49 34.0 °C 14.0 °C 1012.8 hPa SW 11.1 km/h 11.1 km/h 30 % 0.0 mm
12:54 34.0 °C 13.4 °C 1012.8 hPa SE 5.6 km/h 5.6 km/h 29 % 0.0 mm
12:59 33.8 °C 13.8 °C 1012.8 hPa ENE 6.1 km/h 6.1 km/h 30 % 0.0 mm
13:04 32.8 °C 12.9 °C 1011.7 hPa ESE 11.1 km/h 11.1 km/h 30 % 0.0 mm
13:09 32.8 °C 12.9 °C 1011.7 hPa NE 9.3 km/h 9.3 km/h 30 % 0.0 mm
13:14 32.4 °C 12.6 °C 1011.7 hPa East 13.0 km/h 13.0 km/h 30 % 0.0 mm
13:19 32.6 °C 12.8 °C 1011.7 hPa ESE 14.8 km/h 14.8 km/h 30 % 0.0 mm
13:24 32.6 °C 12.8 °C 1011.7 hPa East 14.8 km/h 14.8 km/h 30 % 0.0 mm
13:29 32.7 °C 12.8 °C 1011.7 hPa ESE 10.0 km/h 10.0 km/h 30 % 0.0 mm
13:34 32.7 °C 12.8 °C 1011.7 hPa ENE 14.8 km/h 14.8 km/h 30 % 0.0 mm
13:39 32.7 °C 12.8 °C 1011.7 hPa ESE 9.3 km/h 9.3 km/h 30 % 0.0 mm
13:44 32.7 °C 12.8 °C 1011.7 hPa SW 9.3 km/h 9.3 km/h 30 % 0.0 mm
13:49 33.9 °C 13.4 °C 1011.7 hPa ESE 9.7 km/h 9.7 km/h 29 % 0.0 mm
13:54 33.6 °C 13.1 °C 1011.7 hPa NE 11.1 km/h 11.1 km/h 29 % 0.0 mm
13:59 33.3 °C 12.3 °C 1011.7 hPa East 7.4 km/h 7.4 km/h 28 % 0.0 mm
14:04 33.7 °C 13.2 °C 1011.7 hPa SSW 6.4 km/h 6.4 km/h 29 % 0.0 mm
14:09 33.9 °C 12.8 °C 1011.7 hPa WSW 13.0 km/h 13.0 km/h 28 % 0.0 mm
14:14 34.5 °C 13.3 °C 1011.7 hPa ESE 9.5 km/h 9.5 km/h 28 % 0.0 mm
14:19 34.6 °C 13.4 °C 1010.7 hPa ESE 3.7 km/h 3.7 km/h 28 % 0.0 mm
14:24 34.5 °C 12.8 °C 1010.7 hPa WSW 6.1 km/h 6.1 km/h 27 % 0.0 mm
14:29 35.0 °C 12.6 °C 1010.7 hPa SW 9.3 km/h 9.3 km/h 26 % 0.0 mm
14:34 35.2 °C 12.8 °C 1010.7 hPa SW 11.1 km/h 11.1 km/h 26 % 0.0 mm
14:39 34.9 °C 13.1 °C 1010.7 hPa SSW 7.4 km/h 7.4 km/h 27 % 0.0 mm
14:44 34.9 °C 13.1 °C 1010.7 hPa SW 16.9 km/h 16.9 km/h 27 % 0.0 mm
14:49 34.3 °C 12.1 °C 1011.7 hPa SW 14.8 km/h 14.8 km/h 26 % 0.0 mm
14:54 34.7 °C 12.9 °C 1011.7 hPa SW 13.0 km/h 13.0 km/h 27 % 0.0 mm
14:59 34.4 °C 12.1 °C 1011.7 hPa WSW 14.8 km/h 14.8 km/h 26 % 0.0 mm
15:04 34.6 °C 12.3 °C 1011.7 hPa WSW 11.9 km/h 11.9 km/h 26 % 0.0 mm
15:09 34.4 °C 12.1 °C 1011.7 hPa SSW 11.1 km/h 11.1 km/h 26 % 0.0 mm
15:14 34.7 °C 12.4 °C 1011.7 hPa West 11.1 km/h 11.1 km/h 26 % 0.0 mm
15:19 34.8 °C 12.4 °C 1011.7 hPa SSW 11.1 km/h 11.1 km/h 26 % 0.0 mm
15:24 34.7 °C 12.4 °C 1011.7 hPa SSW 9.3 km/h 9.3 km/h 26 % 0.0 mm
15:29 34.9 °C 12.6 °C 1011.7 hPa WSW 6.9 km/h 6.9 km/h 26 % 0.0 mm
15:34 34.5 °C 12.2 °C 1011.7 hPa WSW 11.1 km/h 11.1 km/h 26 % 0.0 mm
15:39 34.9 °C 12.6 °C 1011.7 hPa SW 13.0 km/h 13.0 km/h 26 % 0.0 mm
15:44 35.4 °C 12.4 °C 1011.7 hPa ESE 3.9 km/h 3.9 km/h 25 % 0.0 mm
15:49 35.7 °C 12.0 °C 1011.7 hPa South 13.0 km/h 13.0 km/h 24 % 0.0 mm
15:54 35.7 °C 12.6 °C 1011.7 hPa WSW 9.3 km/h 9.3 km/h 25 % 0.0 mm
15:59 36.0 °C 12.3 °C 1011.7 hPa SW 8.7 km/h 8.7 km/h 24 % 0.0 mm
16:04 36.0 °C 12.3 °C 1011.7 hPa West 11.9 km/h 11.9 km/h 24 % 0.0 mm
16:09 36.0 °C 12.3 °C 1011.7 hPa South 11.1 km/h 11.1 km/h 24 % 0.0 mm
16:14 36.0 °C 12.3 °C 1011.7 hPa SW 5.6 km/h 5.6 km/h 24 % 0.0 mm
16:19 35.7 °C 12.0 °C 1011.7 hPa ESE 9.3 km/h 9.3 km/h 24 % 0.0 mm
16:24 34.9 °C 11.9 °C 1011.7 hPa SW 9.3 km/h 9.3 km/h 25 % 0.0 mm
16:29 34.3 °C 11.4 °C 1011.7 hPa East 6.4 km/h 6.4 km/h 25 % 0.0 mm
16:34 34.7 °C 11.8 °C 1011.7 hPa WNW 7.4 km/h 7.4 km/h 25 % 0.0 mm
16:39 35.0 °C 10.8 °C 1011.7 hPa SW 14.8 km/h 14.8 km/h 23 % 0.0 mm
16:44 34.9 °C 11.3 °C 1011.7 hPa SW 13.0 km/h 13.0 km/h 24 % 0.0 mm
16:49 34.6 °C 11.1 °C 1011.7 hPa SW 9.3 km/h 9.3 km/h 24 % 0.0 mm
16:54 34.5 °C 10.3 °C 1011.7 hPa SW 9.3 km/h 9.3 km/h 23 % 0.0 mm
16:59 34.6 °C 10.4 °C 1011.7 hPa SW 11.4 km/h 11.4 km/h 23 % 0.0 mm
17:04 34.5 °C 10.3 °C 1011.7 hPa SW 9.3 km/h 9.3 km/h 23 % 0.0 mm
17:09 34.6 °C 10.4 °C 1011.7 hPa SW 13.0 km/h 13.0 km/h 23 % 0.0 mm
17:14 34.1 °C 9.4 °C 1011.7 hPa SSW 11.1 km/h 11.1 km/h 22 % 0.0 mm
17:19 34.4 °C 10.3 °C 1010.7 hPa SW 9.3 km/h 9.3 km/h 23 % 0.0 mm
17:24 34.6 °C 9.8 °C 1010.7 hPa WSW 9.3 km/h 9.3 km/h 22 % 0.0 mm
17:29 34.5 °C 9.7 °C 1010.7 hPa SW 11.1 km/h 11.1 km/h 22 % 0.0 mm
17:34 34.3 °C 9.5 °C 1010.7 hPa SSW 11.1 km/h 11.1 km/h 22 % 0.0 mm
17:35 34.4 °C 9.6 °C 1010.7 hPa SW 7.4 km/h 7.4 km/h 22 % 0.0 mm
17:40 34.5 °C 9.7 °C 1010.7 hPa SW 9.3 km/h 9.3 km/h 22 % 0.0 mm
17:45 34.5 °C 9.7 °C 1010.7 hPa WSW 11.1 km/h 11.1 km/h 22 % 0.0 mm
17:50 34.0 °C 9.3 °C 1010.0 hPa SSW 13.0 km/h 13.0 km/h 22 % 0.0 mm
17:55 33.7 °C 8.3 °C 1010.0 hPa West 13.0 km/h 13.0 km/h 21 % 0.0 mm
18:00 33.7 °C 8.3 °C 1010.0 hPa SW 14.8 km/h 14.8 km/h 21 % 0.0 mm
18:02 33.7 °C 8.3 °C 1010.0 hPa SW 9.3 km/h 9.3 km/h 21 % 0.0 mm
18:07 33.5 °C 8.2 °C 1010.0 hPa SW 13.0 km/h 13.0 km/h 21 % 0.0 mm
18:12 33.6 °C 7.6 °C 1010.0 hPa WSW 9.3 km/h 9.3 km/h 20 % 0.0 mm
18:17 33.5 °C 7.4 °C 1010.0 hPa WSW 13.0 km/h 13.0 km/h 20 % 0.0 mm
18:22 33.2 °C 6.4 °C 1010.0 hPa SSW 22.2 km/h 22.2 km/h 19 % 0.0 mm
18:27 33.3 °C 6.6 °C 1010.0 hPa SW 11.1 km/h 11.1 km/h 19 % 0.0 mm
18:32 33.1 °C 6.4 °C 1010.0 hPa SSW 13.0 km/h 13.0 km/h 19 % 0.0 mm
18:37 33.1 °C 5.6 °C 1010.0 hPa SW 13.0 km/h 13.0 km/h 18 % 0.0 mm
18:42 32.8 °C 4.6 °C 1010.0 hPa West 14.8 km/h 14.8 km/h 17 % 0.0 mm
18:47 32.7 °C 5.3 °C 1009.0 hPa SW 14.8 km/h 14.8 km/h 18 % 0.0 mm
18:52 32.7 °C 5.3 °C 1009.0 hPa WSW 14.8 km/h 14.8 km/h 18 % 0.0 mm
18:57 32.4 °C 4.2 °C 1009.0 hPa SSW 11.1 km/h 11.1 km/h 17 % 0.0 mm
19:02 32.4 °C 4.2 °C 1010.0 hPa SW 11.1 km/h 11.1 km/h 17 % 0.0 mm
19:07 32.3 °C 4.1 °C 1010.0 hPa WSW 11.1 km/h 11.1 km/h 17 % 0.0 mm
19:12 32.0 °C 3.9 °C 1010.0 hPa SSW 11.1 km/h 11.1 km/h 17 % 0.0 mm
19:17 31.8 °C 4.6 °C 1010.0 hPa SW 11.1 km/h 11.1 km/h 18 % 0.0 mm
19:22 31.6 °C 4.4 °C 1010.0 hPa SW 18.5 km/h 18.5 km/h 18 % 0.0 mm
19:27 31.2 °C 4.8 °C 1010.0 hPa SSW 13.0 km/h 13.0 km/h 19 % 0.0 mm
19:32 31.3 °C 5.7 °C 1010.0 hPa SSW 11.1 km/h 11.1 km/h 20 % 0.0 mm
19:37 31.2 °C 5.6 °C 1010.0 hPa SW 7.4 km/h 7.4 km/h 20 % 0.0 mm
19:42 30.7 °C 5.9 °C 1010.0 hPa SW 10.3 km/h 10.3 km/h 21 % 0.0 mm
19:47 30.6 °C 5.8 °C 1010.0 hPa SW 14.8 km/h 14.8 km/h 21 % 0.0 mm
19:52 30.4 °C 6.3 °C 1010.0 hPa SW 11.1 km/h 11.1 km/h 22 % 0.0 mm
19:57 30.3 °C 6.2 °C 1010.0 hPa WSW 7.4 km/h 7.4 km/h 22 % 0.0 mm
20:02 30.0 °C 5.9 °C 1010.0 hPa SW 13.0 km/h 13.0 km/h 22 % 0.0 mm
20:07 29.9 °C 6.5 °C 1010.0 hPa SW 9.0 km/h 9.0 km/h 23 % 0.0 mm
20:12 29.7 °C 6.3 °C 1010.0 hPa SSW 11.1 km/h 11.1 km/h 23 % 0.0 mm
20:17 29.4 °C 6.7 °C 1010.7 hPa WSW 9.3 km/h 9.3 km/h 24 % 0.0 mm
20:22 29.2 °C 6.6 °C 1010.7 hPa WSW 7.4 km/h 7.4 km/h 24 % 0.0 mm
20:27 29.0 °C 7.0 °C 1010.7 hPa SW 9.3 km/h 9.3 km/h 25 % 0.0 mm
20:32 28.8 °C 6.8 °C 1010.7 hPa SW 9.5 km/h 9.5 km/h 25 % 0.0 mm
20:37 28.7 °C 7.3 °C 1010.7 hPa WSW 7.4 km/h 7.4 km/h 26 % 0.0 mm
20:42 28.5 °C 7.1 °C 1010.7 hPa SSW 10.0 km/h 10.0 km/h 26 % 0.0 mm
20:47 28.3 °C 7.5 °C 1010.7 hPa SW 7.4 km/h 7.4 km/h 27 % 0.0 mm
20:52 28.0 °C 7.3 °C 1010.7 hPa SW 8.7 km/h 8.7 km/h 27 % 0.0 mm
20:57 27.8 °C 7.6 °C 1010.7 hPa WSW 9.3 km/h 9.3 km/h 28 % 0.0 mm
21:02 27.6 °C 7.4 °C 1011.7 hPa SW 7.4 km/h 7.4 km/h 28 % 0.0 mm
21:07 27.4 °C 7.3 °C 1011.7 hPa SW 7.4 km/h 7.4 km/h 28 % 0.0 mm
21:12 27.2 °C 7.1 °C 1011.7 hPa SW 11.1 km/h 11.1 km/h 28 % 0.0 mm
21:17 27.0 °C 7.4 °C 1010.7 hPa SW 11.9 km/h 11.9 km/h 29 % 0.0 mm
21:22 26.8 °C 7.3 °C 1010.7 hPa South 7.4 km/h 7.4 km/h 29 % 0.0 mm
21:27 26.6 °C 7.6 °C 1010.7 hPa South 7.4 km/h 7.4 km/h 30 % 0.0 mm
21:32 26.4 °C 7.4 °C 1011.7 hPa SW 5.6 km/h 5.6 km/h 30 % 0.0 mm
21:37 26.2 °C 7.7 °C 1011.7 hPa SSW 5.0 km/h 5.0 km/h 31 % 0.0 mm
21:42 26.0 °C 8.0 °C 1011.7 hPa SW 9.3 km/h 9.3 km/h 32 % 0.0 mm
21:47 25.9 °C 8.4 °C 1011.7 hPa SW 3.9 km/h 3.9 km/h 33 % 0.0 mm
21:52 25.8 °C 8.3 °C 1011.7 hPa SW 5.6 km/h 5.6 km/h 33 % 0.0 mm
21:57 25.6 °C 8.6 °C 1011.7 hPa WSW 5.6 km/h 5.6 km/h 34 % 0.0 mm
22:02 25.5 °C 8.9 °C 1011.7 hPa SW 2.6 km/h 2.6 km/h 35 % 0.0 mm
22:07 25.4 °C 9.2 °C 1011.7 hPa SW 3.9 km/h 3.9 km/h 36 % 0.0 mm
22:12 25.3 °C 9.2 °C 1011.7 hPa SW 3.7 km/h 3.7 km/h 36 % 0.0 mm
22:17 25.2 °C 9.1 °C 1011.7 hPa West 3.7 km/h 3.7 km/h 36 % 0.0 mm
22:22 25.1 °C 9.4 °C 1011.7 hPa West 1.9 km/h   37 % 0.0 mm
22:27 25.1 °C 9.4 °C 1011.7 hPa NW 1.9 km/h   37 % 0.0 mm
22:32 25.0 °C 9.7 °C 1011.7 hPa Calm     38 % 0.0 mm
22:37 25.0 °C 9.3 °C 1011.7 hPa West 3.7 km/h 3.7 km/h 37 % 0.0 mm
22:42 24.9 °C 9.6 °C 1011.7 hPa West 3.7 km/h 3.7 km/h 38 % 0.0 mm
22:47 24.9 °C 9.6 °C 1011.7 hPa West 3.2 km/h 3.2 km/h 38 % 0.0 mm
22:52 24.9 °C 9.6 °C 1011.7 hPa WSW 3.7 km/h 3.7 km/h 38 % 0.0 mm
22:57 24.8 °C 9.9 °C 1011.7 hPa Calm     39 % 0.0 mm
23:02 24.7 °C 9.8 °C 1011.7 hPa West 3.7 km/h   39 % 0.0 mm
23:07 24.5 °C 9.6 °C 1011.7 hPa West 3.7 km/h 3.7 km/h 39 % 0.0 mm
23:12 24.5 °C 9.6 °C 1011.7 hPa West 2.3 km/h 2.3 km/h 39 % 0.0 mm
23:17 24.5 °C 10.0 °C 1011.7 hPa WSW 2.3 km/h 2.3 km/h 40 % 0.0 mm
23:22 24.4 °C 9.9 °C 1011.7 hPa West 3.7 km/h 3.7 km/h 40 % 0.0 mm
23:27 24.4 °C 9.9 °C 1011.7 hPa WSW 3.7 km/h 3.7 km/h 40 % 0.0 mm
23:32 24.3 °C 10.2 °C 1010.7 hPa WSW 2.3 km/h 2.3 km/h 41 % 0.0 mm
23:37 24.3 °C 10.2 °C 1010.7 hPa WSW 6.1 km/h 6.1 km/h 41 % 0.0 mm
23:42 24.4 °C 10.3 °C 1010.7 hPa WSW 5.6 km/h 5.6 km/h 41 % 0.0 mm
23:47 24.3 °C 10.2 °C 1010.7 hPa WSW 5.6 km/h 5.6 km/h 41 % 0.0 mm
23:52 24.2 °C 10.5 °C 1010.7 hPa SW 3.9 km/h 3.9 km/h 42 % 0.0 mm
23:57 24.2 °C 10.5 °C 1010.7 hPa West 3.7 km/h 3.7 km/h 42 % 0.0 mm
Meteo Sesrovires
Elogis d' Weather Underground - 3.5 mb

Guio original per  Jim McMurry - jmcmurry@mwt.net Adaptat per a la plantilla per  Wim van der Kuil - Leuven-Template.eu

Trobareu la nostra informacio del temps tambe a:

Weather Underground

AWEKAS